Terminal Aerodrome Forecast
Issued by NWS

Home | Current Version | Previous Version | Graphics & Text | Print | Product List | Glossary On
Versions: 1 2 3 4 5 6 7 8 9 10 11 12 13 14 15 16 17 18
000
FTUS42 KMHX 261133 AAA
TAFPGV
TAF AMD
KPGV 261133Z 2612/2712 23011KT P6SM SKC
     FM261700 23014G21KT P6SM FEW250
     FM262330 21010KT P6SM FEW110 SCT250
     FM270600 22007KT P6SM BKN110
      AMD LTD TO CLD VIS AND WIND=

USA.gov is the U.S. government's official web portal to all federal, state and local government web resources and services.